Time;durP1;ratioP1;P1;durP2;ratioP2;P2;SDS_P1;SDS_P2;PMS_P1;PMS_P2;Temp;Humidity;BMP_temperature;BMP_pressure;BME280_temperature;BME280_humidity;BME280_pressure;Samples;Min_cycle;Max_cycle;Signal;HPM_P1;HPM_P2
2023/03/28 00:00:41;;;;;;;8.43;3.97;;;;;;;;;;5047780;28;20042;-78
2023/03/28 00:03:08;;;;;;;8.10;4.00;;;;;;;;;;5026950;28;20077;-78
2023/03/28 00:05:36;;;;;;;7.22;3.88;;;;;;;;;;5029325;28;20050;-77
2023/03/28 00:08:03;;;;;;;7.72;3.83;;;;;;;;;;5026034;28;20104;-77
2023/03/28 00:10:31;;;;;;;8.77;4.50;;;;;;;;;;5019545;28;20049;-78
2023/03/28 00:12:57;;;;;;;7.60;3.90;;;;;;;;;;5018545;28;20100;-77
2023/03/28 00:15:25;;;;;;;10.23;3.92;;;;;;;;;;5021404;28;20054;-77
2023/03/28 00:17:52;;;;;;;9.15;3.97;;;;;;;;;;5025640;28;20050;-77
2023/03/28 00:20:19;;;;;;;8.43;4.68;;;;;;;;;;5025184;28;20057;-76
2023/03/28 00:22:46;;;;;;;7.97;4.50;;;;;;;;;;5024573;28;20056;-77
2023/03/28 00:25:13;;;;;;;8.57;4.35;;;;;;;;;;5025231;28;20049;-78
2023/03/28 00:27:41;;;;;;;6.95;3.78;;;;;;;;;;5042459;28;20073;-78
2023/03/28 00:30:09;;;;;;;6.97;3.88;;;;;;;;;;5048085;28;20049;-77
2023/03/28 00:32:36;;;;;;;7.43;3.97;;;;;;;;;;5032921;28;20083;-77
2023/03/28 00:35:03;;;;;;;6.72;3.83;;;;;;;;;;5022154;28;20046;-76
2023/03/28 00:37:30;;;;;;;6.75;3.67;;;;;;;;;;5034182;28;20064;-77
2023/03/28 00:39:58;;;;;;;6.93;3.42;;;;;;;;;;5042800;28;20104;-76
2023/03/28 00:42:26;;;;;;;6.35;3.65;;;;;;;;;;5031401;28;20041;-76
2023/03/28 00:44:55;;;;;;;7.28;4.10;;;;;;;;;;5020734;28;20045;-76
2023/03/28 00:47:39;;;;;;;7.45;4.28;;;;;;;;;;5025712;28;20046;-76
2023/03/28 00:50:11;;;;;;;8.38;4.05;;;;;;;;;;5032613;28;20050;-77
2023/03/28 00:52:42;;;;;;;6.70;4.20;;;;;;;;;;5032185;28;20073;-77
2023/03/28 00:55:13;;;;;;;8.43;4.70;;;;;;;;;;5029745;28;20045;-77
2023/03/28 00:57:41;;;;;;;7.55;4.43;;;;;;;;;;5029736;28;20119;-78
2023/03/28 01:00:12;;;;;;;9.23;5.00;;;;;;;;;;5043076;28;20507;-77
2023/03/28 01:02:40;;;;;;;;;;;;;;;;;;5033789;28;20077;-78
2023/03/28 01:05:08;;;;;;;8.77;4.60;;;;;;;;;;5033675;28;19921;-77
2023/03/28 01:07:40;;;;;;;8.98;4.97;;;;;;;;;;5031062;28;20066;-77
2023/03/28 01:10:08;;;;;;;8.13;4.72;;;;;;;;;;5017012;28;20110;-77
2023/03/28 01:12:35;;;;;;;8.75;4.95;;;;;;;;;;5032404;28;20048;-77
2023/03/28 01:15:04;;;;;;;9.40;4.90;;;;;;;;;;5033753;28;20073;-78
2023/03/28 01:17:32;;;;;;;9.88;5.35;;;;;;;;;;5030501;28;20057;-77
2023/03/28 01:20:12;;;;;;;11.00;5.63;;;;;;;;;;5014120;28;20097;-78
2023/03/28 01:23:19;;;;;;;10.57;5.07;;;;;;;;;;5020848;28;20131;-78
2023/03/28 01:26:12;;;;;;;9.63;5.15;;;;;;;;;;5033737;28;20048;-77
2023/03/28 01:28:59;;;;;;;12.32;5.40;;;;;;;;;;5022856;28;20108;-77
2023/03/28 01:31:56;;;;;;;9.93;6.05;;;;;;;;;;5034811;28;20050;-79
2023/03/28 01:34:37;;;;;;;11.18;5.82;;;;;;;;;;5031758;28;20045;-78
2023/03/28 01:37:34;;;;;;;10.35;6.05;;;;;;;;;;5033161;28;20092;-76
2023/03/28 01:40:24;;;;;;;10.35;6.03;;;;;;;;;;5033207;28;20057;-78
2023/03/28 01:43:00;;;;;;;11.88;6.28;;;;;;;;;;5029634;28;20046;-78
2023/03/28 01:45:35;;;;;;;8.50;5.63;;;;;;;;;;5018720;28;20086;-78
2023/03/28 01:48:07;;;;;;;11.77;7.00;;;;;;;;;;5019525;28;20053;-77
2023/03/28 01:50:43;;;;;;;11.52;6.38;;;;;;;;;;5034794;28;20080;-78
2023/03/28 01:53:18;;;;;;;12.07;6.78;;;;;;;;;;5029510;28;20081;-79
2023/03/28 01:55:52;;;;;;;12.63;7.18;;;;;;;;;;5019947;28;20099;-79
2023/03/28 01:58:28;;;;;;;11.05;6.35;;;;;;;;;;5021121;28;20054;-77
2023/03/28 02:01:03;;;;;;;13.52;6.15;;;;;;;;;;5019581;28;20057;-78
2023/03/28 02:03:33;;;;;;;13.57;7.40;;;;;;;;;;5024015;28;20042;-77
2023/03/28 02:06:01;;;;;;;11.38;7.03;;;;;;;;;;5035457;28;20045;-78
2023/03/28 02:08:33;;;;;;;13.00;6.93;;;;;;;;;;5033404;28;20046;-78
2023/03/28 02:11:00;;;;;;;15.20;6.95;;;;;;;;;;5021315;28;20050;-79
2023/03/28 02:13:33;;;;;;;11.80;6.80;;;;;;;;;;5027755;28;20084;-78
2023/03/28 02:16:02;;;;;;;14.18;7.05;;;;;;;;;;5036894;28;20397;-79
2023/03/28 02:18:33;;;;;;;11.30;6.65;;;;;;;;;;5035009;28;20045;-78
2023/03/28 02:21:05;;;;;;;12.35;7.45;;;;;;;;;;5017872;28;20078;-79
2023/03/28 02:23:37;;;;;;;12.35;6.70;;;;;;;;;;5021291;28;20051;-79
2023/03/28 02:26:04;;;;;;;15.15;6.60;;;;;;;;;;5021987;28;20124;-80
2023/03/28 02:28:32;;;;;;;17.10;7.22;;;;;;;;;;5018575;28;20128;-78
2023/03/28 02:31:01;;;;;;;11.30;6.57;;;;;;;;;;5035009;28;20046;-79
2023/03/28 02:33:36;;;;;;;13.18;7.35;;;;;;;;;;5034186;28;20103;-78
2023/03/28 02:36:10;;;;;;;14.88;7.55;;;;;;;;;;5032621;28;20090;-78
2023/03/28 02:38:46;;;;;;;11.77;6.75;;;;;;;;;;5026323;28;20157;-78
2023/03/28 02:41:19;;;;;;;12.32;6.43;;;;;;;;;;5022520;28;20125;-78
2023/03/28 02:44:07;;;;;;;13.70;7.32;;;;;;;;;;5025887;28;20069;-79
2023/03/28 02:46:41;;;;;;;14.50;7.28;;;;;;;;;;5024198;28;20073;-79
2023/03/28 02:49:26;;;;;;;11.88;7.28;;;;;;;;;;5028348;28;20687;-78
2023/03/28 02:52:08;;;;;;;13.75;6.97;;;;;;;;;;5033811;28;20049;-78
2023/03/28 02:54:42;;;;;;;14.43;7.82;;;;;;;;;;5017758;28;20077;-78
2023/03/28 02:57:15;;;;;;;13.18;6.50;;;;;;;;;;5022065;28;20085;-78
2023/03/28 02:59:46;;;;;;;11.80;6.32;;;;;;;;;;5035177;28;20131;-78
2023/03/28 03:02:17;;;;;;;13.15;6.97;;;;;;;;;;5037532;28;20053;-78
2023/03/28 03:04:44;;;;;;;;;;;;;;;;;;5019577;28;20061;-79
2023/03/28 03:07:12;;;;;;;13.57;7.30;;;;;;;;;;5023862;28;19921;-79
2023/03/28 03:09:41;;;;;;;14.70;7.05;;;;;;;;;;5028923;28;20053;-78
2023/03/28 03:12:08;;;;;;;15.80;6.65;;;;;;;;;;5034941;28;20100;-78
2023/03/28 03:14:35;;;;;;;12.65;6.43;;;;;;;;;;5035044;28;20050;-78
2023/03/28 03:17:03;;;;;;;17.42;7.93;;;;;;;;;;5035050;28;20062;-78
2023/03/28 03:19:30;;;;;;;13.60;6.90;;;;;;;;;;5019668;28;20144;-77
2023/03/28 03:21:57;;;;;;;16.63;7.03;;;;;;;;;;5014329;28;20046;-77
2023/03/28 03:24:24;;;;;;;14.35;7.82;;;;;;;;;;5025145;28;20041;-78
2023/03/28 03:26:52;;;;;;;10.50;6.25;;;;;;;;;;5034430;28;20049;-78
2023/03/28 03:29:20;;;;;;;12.57;6.72;;;;;;;;;;5032701;28;20076;-78
2023/03/28 03:31:46;;;;;;;11.25;6.63;;;;;;;;;;5031886;28;20484;-78
2023/03/28 03:34:13;;;;;;;12.23;6.78;;;;;;;;;;5014386;28;20096;-78
2023/03/28 03:36:41;;;;;;;14.85;7.57;;;;;;;;;;5014610;28;20081;-78
2023/03/28 03:39:08;;;;;;;15.25;7.20;;;;;;;;;;5028844;28;20072;-78
2023/03/28 03:41:35;;;;;;;12.90;6.82;;;;;;;;;;5031044;28;20091;-78
2023/03/28 03:44:03;;;;;;;14.27;7.35;;;;;;;;;;5048528;28;20049;-78
2023/03/28 03:46:30;;;;;;;11.55;7.22;;;;;;;;;;5048492;28;20045;-78
2023/03/28 03:48:56;;;;;;;13.27;6.13;;;;;;;;;;5040627;28;20049;-78
2023/03/28 03:51:23;;;;;;;17.10;7.55;;;;;;;;;;5050276;28;20045;-78
2023/03/28 03:53:50;;;;;;;14.63;7.35;;;;;;;;;;5048678;28;20052;-79
2023/03/28 03:56:17;;;;;;;15.80;7.63;;;;;;;;;;5048606;28;20060;-78
2023/03/28 03:58:44;;;;;;;16.23;7.78;;;;;;;;;;5034606;28;20096;-78
2023/03/28 04:01:12;;;;;;;15.15;7.38;;;;;;;;;;5028717;28;20046;-77
2023/03/28 04:03:39;;;;;;;14.10;7.05;;;;;;;;;;5036235;28;20050;-78
2023/03/28 04:06:06;;;;;;;11.18;6.13;;;;;;;;;;5040792;28;20060;-79
2023/03/28 04:08:33;;;;;;;16.85;7.13;;;;;;;;;;5039172;28;20057;-78
2023/03/28 04:11:00;;;;;;;13.35;6.95;;;;;;;;;;5033604;28;20057;-79
2023/03/28 04:13:27;;;;;;;10.73;6.78;;;;;;;;;;5039481;28;20052;-78
2023/03/28 04:15:54;;;;;;;16.45;7.68;;;;;;;;;;5039039;28;20045;-79
2023/03/28 04:18:22;;;;;;;14.05;7.07;;;;;;;;;;5028960;28;20460;-78
2023/03/28 04:20:53;;;;;;;13.18;7.00;;;;;;;;;;5018795;28;20085;-78
2023/03/28 04:23:24;;;;;;;13.52;7.10;;;;;;;;;;5021207;28;20052;-78
2023/03/28 04:25:54;;;;;;;12.05;6.85;;;;;;;;;;5021384;28;20073;-78
2023/03/28 04:28:23;;;;;;;12.60;6.93;;;;;;;;;;5038400;28;20100;-77
2023/03/28 04:30:53;;;;;;;16.92;7.10;;;;;;;;;;5029423;28;20497;-77
2023/03/28 04:33:23;;;;;;;14.00;7.85;;;;;;;;;;5032751;28;20122;-77
2023/03/28 04:35:55;;;;;;;16.83;7.50;;;;;;;;;;5033514;28;20068;-78
2023/03/28 04:38:24;;;;;;;12.43;6.85;;;;;;;;;;5033970;28;20045;-77
2023/03/28 04:40:52;;;;;;;15.52;7.45;;;;;;;;;;5030585;28;20045;-79
2023/03/28 04:43:19;;;;;;;15.82;6.95;;;;;;;;;;5013990;28;20074;-79
2023/03/28 04:45:46;;;;;;;13.50;6.80;;;;;;;;;;5013631;28;20469;-78
2023/03/28 04:48:13;;;;;;;14.65;7.50;;;;;;;;;;5034785;22;20042;-55
2023/03/28 04:50:41;;;;;;;13.50;7.50;;;;;;;;;;5006093;28;20382;-55
2023/03/28 04:53:08;;;;;;;14.07;7.07;;;;;;;;;;4998487;28;20059;-52
2023/03/28 04:55:35;;;;;;;14.18;7.38;;;;;;;;;;4992337;28;20407;-56
2023/03/28 04:58:02;;;;;;;14.90;7.72;;;;;;;;;;4992343;28;20503;-54
2023/03/28 05:00:29;;;;;;;14.32;7.30;;;;;;;;;;5004550;28;20108;-57
2023/03/28 05:02:55;;;;;;;14.27;7.55;;;;;;;;;;4996747;28;20046;-55
2023/03/28 05:05:22;;;;;;;14.82;7.88;;;;;;;;;;4994242;28;20042;-55
2023/03/28 05:07:51;;;;;;;15.27;7.85;;;;;;;;;;4992120;28;20491;-53
2023/03/28 05:10:18;;;;;;;15.50;7.82;;;;;;;;;;4992358;28;20114;-56
2023/03/28 05:12:45;;;;;;;15.63;7.75;;;;;;;;;;4992321;28;20046;-54
2023/03/28 05:15:12;;;;;;;13.27;7.35;;;;;;;;;;4992578;28;20117;-55
2023/03/28 05:17:40;;;;;;;14.70;7.55;;;;;;;;;;4992690;28;20452;-56
2023/03/28 05:20:09;;;;;;;19.60;8.65;;;;;;;;;;5005712;28;20057;-57
2023/03/28 05:22:37;;;;;;;18.60;7.82;;;;;;;;;;5015202;28;20042;-54
2023/03/28 05:25:07;;;;;;;17.95;8.00;;;;;;;;;;5014612;28;20419;-55
2023/03/28 05:27:34;;;;;;;15.90;7.70;;;;;;;;;;5015576;28;20061;-55
2023/03/28 05:30:01;;;;;;;15.48;7.13;;;;;;;;;;5013726;28;20050;-54
2023/03/28 05:32:27;;;;;;;17.98;7.68;;;;;;;;;;4995612;28;20050;-55
2023/03/28 05:34:54;;;;;;;13.75;7.75;;;;;;;;;;4996050;28;20046;-57
2023/03/28 05:37:21;;;;;;;14.80;7.88;;;;;;;;;;4995627;28;20050;-56
2023/03/28 05:39:49;;;;;;;16.60;8.05;;;;;;;;;;5003383;28;20057;-53
2023/03/28 05:42:17;;;;;;;15.70;7.75;;;;;;;;;;4995497;28;20484;-57
2023/03/28 05:44:44;;;;;;;15.25;7.65;;;;;;;;;;4995451;28;20050;-53
2023/03/28 05:50:33;;;;;;;14.80;7.95;;;;;;;;;;5008179;28;20089;-52
2023/03/28 05:53:00;;;;;;;15.23;7.43;;;;;;;;;;4995342;28;20554;-55
2023/03/28 06:02:14;;;;;;;15.02;7.57;;;;;;;;;;5010178;28;20092;-56
2023/03/28 06:04:41;;;;;;;;;;;;;;;;;;5000585;28;20496;-52
2023/03/28 06:07:08;;;;;;;15.13;6.43;;;;;;;;;;4995075;28;19922;-55
2023/03/28 06:09:35;;;;;;;16.70;7.30;;;;;;;;;;4994997;28;20058;-57
2023/03/28 06:12:03;;;;;;;11.90;6.03;;;;;;;;;;4994749;28;20491;-55
2023/03/28 06:14:30;;;;;;;14.07;6.65;;;;;;;;;;4995140;28;20046;-54
2023/03/28 06:16:57;;;;;;;14.27;7.03;;;;;;;;;;4995174;28;20481;-56
2023/03/28 06:19:26;;;;;;;11.40;6.75;;;;;;;;;;5010080;28;20569;-56
2023/03/28 06:21:53;;;;;;;15.30;7.18;;;;;;;;;;5011356;28;20104;-55
2023/03/28 06:24:20;;;;;;;15.18;7.93;;;;;;;;;;4994686;28;20467;-54
2023/03/28 06:26:46;;;;;;;13.30;6.63;;;;;;;;;;4996108;28;20050;-56
2023/03/28 06:29:14;;;;;;;15.43;6.70;;;;;;;;;;5009000;28;20054;-53
2023/03/28 06:31:41;;;;;;;14.45;7.38;;;;;;;;;;5013245;28;20057;-57
2023/03/28 06:34:08;;;;;;;15.48;7.03;;;;;;;;;;4994588;28;20132;-53
2023/03/28 06:36:36;;;;;;;10.82;6.43;;;;;;;;;;4994684;28;20405;-57
2023/03/28 06:39:03;;;;;;;13.65;6.85;;;;;;;;;;5012804;28;20395;-56
2023/03/28 06:41:30;;;;;;;15.07;7.78;;;;;;;;;;5003807;28;20061;-56
2023/03/28 06:47:41;;;;;;;16.80;6.60;;;;;;;;;;4994671;28;20036;-56
2023/03/28 06:50:08;;;;;;;13.68;6.90;;;;;;;;;;4993864;28;20089;-54
2023/03/28 06:52:37;;;;;;;13.35;6.40;;;;;;;;;;5003145;28;20104;-55
2023/03/28 06:55:04;;;;;;;16.00;7.35;;;;;;;;;;5014037;28;20049;-56
2023/03/28 06:57:31;;;;;;;11.43;6.65;;;;;;;;;;5014083;28;20049;-54
2023/03/28 06:59:58;;;;;;;14.18;6.40;;;;;;;;;;5013318;28;20064;-53
2023/03/28 07:02:25;;;;;;;14.15;6.38;;;;;;;;;;5013639;28;20407;-57
2023/03/28 07:04:52;;;;;;;14.15;5.80;;;;;;;;;;5013022;28;20050;-56
2023/03/28 07:07:18;;;;;;;13.50;6.15;;;;;;;;;;5013876;28;20054;-55
2023/03/28 07:09:48;;;;;;;14.20;5.80;;;;;;;;;;5013513;28;20054;-56
2023/03/28 07:12:15;;;;;;;12.23;5.45;;;;;;;;;;5012931;28;20089;-53
2023/03/28 07:14:43;;;;;;;13.82;5.53;;;;;;;;;;5013637;28;20047;-55
2023/03/28 07:17:10;;;;;;;10.75;5.88;;;;;;;;;;5013425;28;20243;-57
2023/03/28 07:19:37;;;;;;;12.50;5.38;;;;;;;;;;5013882;28;20472;-51
2023/03/28 07:22:04;;;;;;;12.07;5.68;;;;;;;;;;5012860;28;20054;-56
2023/03/28 07:24:31;;;;;;;12.45;5.35;;;;;;;;;;5013448;28;20136;-55
2023/03/28 07:27:00;;;;;;;11.65;5.50;;;;;;;;;;5011946;28;20061;-58
2023/03/28 07:29:27;;;;;;;11.82;6.07;;;;;;;;;;5013603;28;20046;-61
2023/03/28 07:31:53;;;;;;;11.60;5.43;;;;;;;;;;5012114;28;20050;-57
2023/03/28 07:34:20;;;;;;;13.40;6.00;;;;;;;;;;5010901;28;20115;-56
2023/03/28 07:36:47;;;;;;;10.23;4.60;;;;;;;;;;5007352;28;20120;-54
2023/03/28 07:39:14;;;;;;;10.85;4.65;;;;;;;;;;5010536;28;20046;-56
2023/03/28 07:41:41;;;;;;;12.82;5.38;;;;;;;;;;5003767;28;20049;-53
2023/03/28 07:44:09;;;;;;;9.88;4.50;;;;;;;;;;5009081;28;20049;-52
2023/03/28 07:46:37;;;;;;;8.90;4.20;;;;;;;;;;5010558;28;20487;-56
2023/03/28 07:49:04;;;;;;;11.40;4.50;;;;;;;;;;5006280;28;20081;-57
2023/03/28 07:51:30;;;;;;;11.70;4.00;;;;;;;;;;5010796;28;20058;-56
2023/03/28 07:53:57;;;;;;;15.52;4.18;;;;;;;;;;5009611;28;20054;-57
2023/03/28 07:56:24;;;;;;;11.43;3.90;;;;;;;;;;5010982;28;20049;-55
2023/03/28 07:58:51;;;;;;;11.05;4.15;;;;;;;;;;5005987;28;20100;-58
2023/03/28 08:01:21;;;;;;;10.40;4.25;;;;;;;;;;5000745;28;20423;-60
2023/03/28 08:03:48;;;;;;;11.63;4.50;;;;;;;;;;5001444;28;20078;-58
2023/03/28 08:06:16;;;;;;;13.63;4.72;;;;;;;;;;5008003;28;20125;-61
2023/03/28 08:08:43;;;;;;;8.00;3.25;;;;;;;;;;5010648;28;20538;-58
2023/03/28 08:11:12;;;;;;;9.70;3.70;;;;;;;;;;5005013;28;20046;-62
2023/03/28 08:13:39;;;;;;;8.15;3.60;;;;;;;;;;5010295;28;20414;-61
2023/03/28 08:16:06;;;;;;;8.70;3.80;;;;;;;;;;5003622;28;20072;-58
2023/03/28 08:18:34;;;;;;;10.25;4.05;;;;;;;;;;5009058;28;20115;-55
2023/03/28 08:21:03;;;;;;;8.00;4.03;;;;;;;;;;5007333;28;20077;-62
2023/03/28 08:23:30;;;;;;;9.07;3.80;;;;;;;;;;5007680;28;20414;-59
2023/03/28 08:26:03;;;;;;;6.28;2.67;;;;;;;;;;4998479;28;20057;-55
2023/03/28 08:28:31;;;;;;;7.95;3.63;;;;;;;;;;5006091;28;20072;-58
2023/03/28 08:30:58;;;;;;;5.35;2.75;;;;;;;;;;5008837;28;20046;-56
2023/03/28 08:33:27;;;;;;;6.72;3.60;;;;;;;;;;4998313;28;20057;-56
2023/03/28 08:35:56;;;;;;;6.63;3.13;;;;;;;;;;5011140;28;20054;-54
2023/03/28 08:38:23;;;;;;;6.88;3.22;;;;;;;;;;5009982;28;20096;-57
2023/03/28 08:41:01;;;;;;;6.95;3.42;;;;;;;;;;5010022;28;20058;-58
2023/03/28 08:43:49;;;;;;;6.85;4.03;;;;;;;;;;5010155;28;20069;-56
2023/03/28 08:46:18;;;;;;;8.90;3.13;;;;;;;;;;4998729;28;20141;-55
2023/03/28 08:48:46;;;;;;;8.82;2.97;;;;;;;;;;5005194;28;20046;-53
2023/03/28 08:51:20;;;;;;;5.85;2.33;;;;;;;;;;4991204;28;20073;-57
2023/03/28 08:53:55;;;;;;;6.32;2.78;;;;;;;;;;5005901;28;20127;-57
2023/03/28 08:56:22;;;;;;;7.25;3.05;;;;;;;;;;5003969;28;20045;-57
2023/03/28 08:58:55;;;;;;;7.53;3.22;;;;;;;;;;5013648;28;20439;-55
2023/03/28 09:01:22;;;;;;;9.55;3.92;;;;;;;;;;5007587;28;20049;-57
2023/03/28 09:03:49;;;;;;;6.25;3.08;;;;;;;;;;5005014;28;20054;-56
2023/03/28 09:06:26;;;;;;;5.85;2.72;;;;;;;;;;5008771;28;20682;-55
2023/03/28 09:09:31;;;;;;;8.43;2.22;;;;;;;;;;5002810;28;20486;-57
2023/03/28 09:12:06;;;;;;;6.03;2.50;;;;;;;;;;5004993;28;20125;-58
2023/03/28 09:15:11;;;;;;;5.78;2.88;;;;;;;;;;5013946;28;20140;-57
2023/03/28 09:17:46;;;;;;;6.22;2.65;;;;;;;;;;4995459;28;20438;-56
2023/03/28 09:20:18;;;;;;;5.80;2.78;;;;;;;;;;5012795;28;20050;-57
2023/03/28 09:23:01;;;;;;;5.10;2.30;;;;;;;;;;5000062;28;20410;-56
2023/03/28 09:25:35;;;;;;;4.55;2.20;;;;;;;;;;5013456;28;20053;-56
2023/03/28 09:28:11;;;;;;;4.95;2.40;;;;;;;;;;5006805;28;20057;-55
2023/03/28 09:30:42;;;;;;;6.50;2.65;;;;;;;;;;5006389;28;20061;-55
2023/03/28 09:33:14;;;;;;;5.82;2.35;;;;;;;;;;5012974;28;20168;-55
2023/03/28 09:35:43;;;;;;;5.18;2.53;;;;;;;;;;5013694;28;20057;-55
2023/03/28 09:38:20;;;;;;;5.90;2.67;;;;;;;;;;5003397;28;20529;-54
2023/03/28 09:40:49;;;;;;;4.75;1.95;;;;;;;;;;5008049;28;20039;-56
2023/03/28 09:43:25;;;;;;;4.20;2.17;;;;;;;;;;5008844;28;20047;-57
2023/03/28 09:45:59;;;;;;;6.10;2.35;;;;;;;;;;5011711;28;20046;-55
2023/03/28 09:48:28;;;;;;;5.85;1.98;;;;;;;;;;5005236;28;20053;-54
2023/03/28 09:50:56;;;;;;;4.95;2.10;;;;;;;;;;5012670;28;20050;-58
2023/03/28 09:53:27;;;;;;;5.82;2.28;;;;;;;;;;5012491;28;20223;-55
2023/03/28 09:55:56;;;;;;;6.28;2.70;;;;;;;;;;5006491;28;20042;-54
2023/03/28 09:58:23;;;;;;;4.57;2.13;;;;;;;;;;5012517;28;20054;-57
2023/03/28 10:00:51;;;;;;;5.72;1.85;;;;;;;;;;5005557;28;20388;-55
2023/03/28 10:03:27;;;;;;;5.82;2.00;;;;;;;;;;5012429;28;20045;-55
2023/03/28 10:05:56;;;;;;;6.90;2.05;;;;;;;;;;5002729;28;20054;-57
2023/03/28 10:08:31;;;;;;;3.80;1.90;;;;;;;;;;5000353;28;20408;-54
2023/03/28 10:11:02;;;;;;;5.20;1.85;;;;;;;;;;5000568;28;20558;-57
2023/03/28 10:13:36;;;;;;;4.38;1.85;;;;;;;;;;5011551;28;20049;-56
2023/03/28 10:16:05;;;;;;;6.32;2.03;;;;;;;;;;5012622;28;20058;-59
2023/03/28 10:18:32;;;;;;;5.45;2.28;;;;;;;;;;5011312;28;20053;-57
2023/03/28 10:21:06;;;;;;;4.10;1.85;;;;;;;;;;5010194;28;20049;-56
2023/03/28 10:23:35;;;;;;;5.22;2.08;;;;;;;;;;5009491;28;20053;-55
2023/03/28 10:26:03;;;;;;;8.35;2.72;;;;;;;;;;5012368;28;20045;-57
2023/03/28 10:28:33;;;;;;;11.70;2.22;;;;;;;;;;5011697;28;20108;-57
2023/03/28 10:31:01;;;;;;;6.43;2.30;;;;;;;;;;5009409;28;20053;-56
2023/03/28 10:33:33;;;;;;;4.82;2.17;;;;;;;;;;5000520;28;20133;-57
2023/03/28 10:36:01;;;;;;;4.47;2.05;;;;;;;;;;5007054;28;20053;-57
2023/03/28 10:41:55;;;;;;;4.72;1.70;;;;;;;;;;5008435;28;20537;-55
2023/03/28 10:44:27;;;;;;;6.82;2.22;;;;;;;;;;5011770;28;20490;-58
2023/03/28 10:47:05;;;;;;;5.30;1.60;;;;;;;;;;5028332;22;20129;-77
2023/03/28 10:49:42;;;;;;;4.55;2.00;;;;;;;;;;4974179;28;20058;-79
2023/03/28 10:52:17;;;;;;;5.65;1.92;;;;;;;;;;4977650;28;20058;-78
2023/03/28 10:54:59;;;;;;;5.18;2.13;;;;;;;;;;4974136;28;20130;-79
2023/03/28 10:57:34;;;;;;;7.00;2.17;;;;;;;;;;4976024;28;20082;-79
2023/03/28 11:00:07;;;;;;;3.65;1.90;;;;;;;;;;4975631;28;20043;-79
2023/03/28 11:02:47;;;;;;;4.55;1.80;;;;;;;;;;4975838;28;20133;-79
2023/03/28 11:05:31;;;;;;;3.88;1.73;;;;;;;;;;4974851;28;20046;-79
2023/03/28 11:08:06;;;;;;;6.95;2.30;;;;;;;;;;4975881;28;20043;-79
2023/03/28 11:10:43;;;;;;;4.82;2.10;;;;;;;;;;4975881;28;20047;-80
2023/03/28 11:13:26;;;;;;;6.55;2.80;;;;;;;;;;4976807;28;20050;-79
2023/03/28 11:15:58;;;;;;;4.78;2.10;;;;;;;;;;4978236;28;20051;-79
2023/03/28 11:18:46;;;;;;;5.05;2.28;;;;;;;;;;4975765;28;20047;-78
2023/03/28 11:21:21;;;;;;;6.20;2.72;;;;;;;;;;4976560;28;20497;-80
2023/03/28 11:24:02;;;;;;;4.30;2.35;;;;;;;;;;4975761;28;20055;-78
2023/03/28 11:26:38;;;;;;;3.58;2.10;;;;;;;;;;4975267;28;20417;-79
2023/03/28 11:29:17;;;;;;;4.47;2.55;;;;;;;;;;4984199;28;20042;-78
2023/03/28 11:31:50;;;;;;;4.65;2.00;;;;;;;;;;4978464;28;20046;-79
2023/03/28 11:34:22;;;;;;;4.43;2.35;;;;;;;;;;4984588;28;20039;-77
2023/03/28 11:36:54;;;;;;;5.72;2.42;;;;;;;;;;4975700;28;20089;-78
2023/03/28 11:39:37;;;;;;;5.32;2.33;;;;;;;;;;4974597;28;20498;-80
2023/03/28 11:42:10;;;;;;;5.75;2.40;;;;;;;;;;4974911;28;20057;-79
2023/03/28 11:44:44;;;;;;;6.32;2.85;;;;;;;;;;4975329;28;20083;-79
2023/03/28 11:47:14;;;;;;;6.82;3.10;;;;;;;;;;4973951;28;20047;-80
2023/03/28 11:49:45;;;;;;;5.85;2.30;;;;;;;;;;4968224;28;20102;-79
2023/03/28 11:52:16;;;;;;;5.32;2.45;;;;;;;;;;4973625;28;20089;-79
2023/03/28 11:54:49;;;;;;;6.90;2.47;;;;;;;;;;4968085;28;20050;-79
2023/03/28 11:57:23;;;;;;;7.10;2.92;;;;;;;;;;4975680;28;20074;-79
2023/03/28 11:59:57;;;;;;;4.97;2.60;;;;;;;;;;4974989;28;20122;-79
2023/03/28 12:02:37;;;;;;;6.47;3.30;;;;;;;;;;4974136;28;20097;-78
2023/03/28 12:05:09;;;;;;;6.30;2.70;;;;;;;;;;4974216;28;20093;-79
2023/03/28 12:07:43;;;;;;;4.70;3.35;;;;;;;;;;4974454;28;20061;-78
2023/03/28 12:10:20;;;;;;;4.78;2.53;;;;;;;;;;4974183;28;20079;-79
2023/03/28 12:12:55;;;;;;;6.88;2.65;;;;;;;;;;4975101;28;20069;-78
2023/03/28 12:15:33;;;;;;;5.80;3.03;;;;;;;;;;4975008;28;20058;-79
2023/03/28 12:18:02;;;;;;;6.57;2.47;;;;;;;;;;4982018;28;20078;-78
2023/03/28 12:20:37;;;;;;;5.35;2.70;;;;;;;;;;4980829;28;20070;-78
2023/03/28 12:23:10;;;;;;;7.10;3.00;;;;;;;;;;4982875;28;20078;-78
2023/03/28 12:25:42;;;;;;;9.85;3.05;;;;;;;;;;4979516;28;20047;-78
2023/03/28 12:28:21;;;;;;;7.20;2.80;;;;;;;;;;4974281;28;20050;-78
2023/03/28 12:31:00;;;;;;;4.93;2.78;;;;;;;;;;4966134;28;20062;-78
2023/03/28 12:33:39;;;;;;;7.55;3.17;;;;;;;;;;4974125;28;20449;-78
2023/03/28 12:36:16;;;;;;;4.85;2.72;;;;;;;;;;4974121;28;20050;-78
2023/03/28 12:38:52;;;;;;;5.85;2.83;;;;;;;;;;4973392;28;20102;-78
2023/03/28 12:41:23;;;;;;;5.60;2.45;;;;;;;;;;4985698;28;20055;-78
2023/03/28 12:43:55;;;;;;;4.97;2.92;;;;;;;;;;4986285;28;20070;-78
2023/03/28 12:46:29;;;;;;;6.53;3.20;;;;;;;;;;4976362;28;20075;-81
2023/03/28 12:48:58;;;;;;;5.18;2.63;;;;;;;;;;4971051;28;20075;-78
2023/03/28 12:51:33;;;;;;;5.20;2.78;;;;;;;;;;4972471;28;20691;-79
2023/03/28 12:54:06;;;;;;;6.88;3.00;;;;;;;;;;4975257;28;20043;-79
2023/03/28 12:56:33;;;;;;;6.03;3.30;;;;;;;;;;4980852;28;20046;-78
2023/03/28 12:59:00;;;;;;;6.15;3.25;;;;;;;;;;4985321;28;20062;-79
2023/03/28 13:01:45;;;;;;;7.30;3.10;;;;;;;;;;4986986;28;20417;-79
2023/03/28 13:04:22;;;;;;;8.55;3.50;;;;;;;;;;4974203;28;20473;-82
2023/03/28 13:06:58;;;;;;;6.93;3.15;;;;;;;;;;4981133;28;20075;-78
2023/03/28 13:09:48;;;;;;;5.80;3.22;;;;;;;;;;4980737;28;20143;-79
2023/03/28 13:12:44;;;;;;;5.80;3.35;;;;;;;;;;4979025;28;20106;-78
2023/03/28 13:15:30;;;;;;;6.18;2.83;;;;;;;;;;4968750;28;20528;-78
2023/03/28 13:18:30;;;;;;;5.20;2.65;;;;;;;;;;4975159;28;20134;-79
2023/03/28 13:20:58;;;;;;;7.47;3.13;;;;;;;;;;4979157;28;20051;-79
2023/03/28 13:23:35;;;;;;;6.05;2.97;;;;;;;;;;4972234;28;20050;-81
2023/03/28 13:26:03;;;;;;;6.43;3.40;;;;;;;;;;4972806;28;20109;-77
2023/03/28 13:28:37;;;;;;;5.18;3.33;;;;;;;;;;4966070;28;20577;-78
2023/03/28 13:31:10;;;;;;;7.13;3.13;;;;;;;;;;4968237;28;20501;-76
2023/03/28 13:33:44;;;;;;;5.88;3.10;;;;;;;;;;4971063;28;20141;-78
2023/03/28 13:36:28;;;;;;;5.60;2.90;;;;;;;;;;4971943;28;20055;-78
2023/03/28 13:39:19;;;;;;;6.45;3.03;;;;;;;;;;4972083;28;20467;-77
2023/03/28 13:41:59;;;;;;;8.05;3.60;;;;;;;;;;4971191;28;20074;-77
2023/03/28 13:44:39;;;;;;;6.53;3.28;;;;;;;;;;4974272;28;20107;-77
2023/03/28 13:47:06;;;;;;;6.28;3.50;;;;;;;;;;4971269;28;20046;-78
2023/03/28 13:49:47;;;;;;;5.43;2.83;;;;;;;;;;4980278;28;20564;-77
2023/03/28 13:52:17;;;;;;;6.68;3.30;;;;;;;;;;4976698;28;20378;-78
2023/03/28 13:54:44;;;;;;;6.18;3.17;;;;;;;;;;4973571;28;20047;-79
2023/03/28 13:57:16;;;;;;;5.90;3.38;;;;;;;;;;4964663;28;20106;-78
2023/03/28 13:59:51;;;;;;;6.47;3.00;;;;;;;;;;4964165;28;20098;-78
2023/03/28 14:02:20;;;;;;;7.20;3.33;;;;;;;;;;4966893;28;20071;-78
2023/03/28 14:04:56;;;;;;;4.85;3.20;;;;;;;;;;4963514;28;20051;-78
2023/03/28 14:07:26;;;;;;;5.45;2.80;;;;;;;;;;4962863;28;20054;-78
2023/03/28 14:09:54;;;;;;;5.68;3.10;;;;;;;;;;4963490;28;20055;-78
2023/03/28 14:12:24;;;;;;;6.38;3.05;;;;;;;;;;4972734;28;20055;-78
2023/03/28 14:14:53;;;;;;;7.57;3.35;;;;;;;;;;4996760;28;20074;-78
2023/03/28 14:17:23;;;;;;;5.88;3.25;;;;;;;;;;4985473;28;20054;-78
2023/03/28 14:19:54;;;;;;;5.07;3.25;;;;;;;;;;4999460;28;20046;-79
2023/03/28 14:22:27;;;;;;;5.72;3.13;;;;;;;;;;4982214;28;20097;-78
2023/03/28 14:24:57;;;;;;;5.68;3.20;;;;;;;;;;4980102;28;20054;-78
2023/03/28 14:27:31;;;;;;;5.32;2.88;;;;;;;;;;4962964;28;20131;-77
2023/03/28 14:29:59;;;;;;;5.63;3.20;;;;;;;;;;4965230;28;20075;-77
2023/03/28 14:32:30;;;;;;;7.70;3.78;;;;;;;;;;4967938;28;20043;-78
2023/03/28 14:35:15;;;;;;;5.13;3.20;;;;;;;;;;4987296;28;20109;-78
2023/03/28 14:37:47;;;;;;;5.85;3.13;;;;;;;;;;4996232;28;20089;-79
2023/03/28 14:40:19;;;;;;;6.53;3.50;;;;;;;;;;4970417;28;20051;-79
2023/03/28 14:42:56;;;;;;;5.80;3.15;;;;;;;;;;4967221;28;20476;-78
2023/03/28 14:45:25;;;;;;;6.50;3.38;;;;;;;;;;4976729;28;20079;-78
2023/03/28 14:47:52;;;;;;;5.85;3.75;;;;;;;;;;4995461;28;20050;-78
2023/03/28 14:50:21;;;;;;;6.40;3.00;;;;;;;;;;4976591;28;20081;-78
2023/03/28 14:52:48;;;;;;;5.45;3.38;;;;;;;;;;4977646;28;20047;-77
2023/03/28 14:55:18;;;;;;;6.78;3.50;;;;;;;;;;4978597;28;20101;-79
2023/03/28 14:57:46;;;;;;;5.77;3.43;;;;;;;;;;4969910;28;20567;-78
2023/03/28 15:00:18;;;;;;;6.93;3.03;;;;;;;;;;4993232;28;20276;-79
2023/03/28 15:02:45;;;;;;;6.65;2.90;;;;;;;;;;4998377;28;20050;-77
2023/03/28 15:05:14;;;;;;;6.97;3.65;;;;;;;;;;4966006;28;20075;-78
2023/03/28 15:07:43;;;;;;;7.70;3.20;;;;;;;;;;4958505;28;20089;-78
2023/03/28 15:10:11;;;;;;;7.65;4.07;;;;;;;;;;4959767;28;20054;-78
2023/03/28 15:12:44;;;;;;;5.18;3.17;;;;;;;;;;4967581;28;20058;-79
2023/03/28 15:15:19;;;;;;;6.45;3.67;;;;;;;;;;4979695;28;20137;-78
2023/03/28 15:17:46;;;;;;;6.22;3.42;;;;;;;;;;4977569;28;20043;-79
2023/03/28 15:20:16;;;;;;;5.63;3.53;;;;;;;;;;4977345;28;20382;-77